Terminal Aerodrome Forecast
Issued by NWS Wilmington, NC

Home | Current Version | Previous Version | Text Only | Print | Product List | Glossary On
Versions: 1 2 3 4 5 6 7 8 9 10 11 12 13 14 15 16 17
000
FTUS42 KILM 162320
TAFILM
TAF
KILM 162320Z 1700/1724 05004KT P6SM OVC015
     FM170500 03003KT 4SM BR SCT003 OVC007
     FM171600 27005KT P6SM SCT007 BKN020
     FM171800 23011KT P6SM FEW250=

USA.gov is the U.S. government's official web portal to all federal, state and local government web resources and services.